Port Heiden Airport Port Heiden US
ICAO: PAPH
IATA:
Category: Medium
Scheduled Services:

Elevation: 95 ft
TransAlt. 18000 ft.

Airport Communications:
AWOS 3:135.4
ANCHORAGE CNTR:132.9
CTAF:122.8
KENAI RDO:122

PAPH Zoom In..

If you have problems with the map follow the link
https://www.worldairports.se/pages/airport.php?
ICAO=PAPH

Runways:

(A) RW 05 length 5000 ft width 100 ft
---- / hdg 54

(B) RW 13 length 4000 ft width 100 ft
---- / hdg 131

(C) RW 23 length 5000 ft width 100 ft
---- / hdg 234

(D) RW 31 length 4000 ft width 100 ft
---- / hdg 311

Location; PAPH
Day. 25 / Time. 06.56 Zulu
* Altimeter: 29.62
* Temperature: -13° c. -8.6°f.
* Wind from: 040° Speed 17 kn.
Dewpoint: -18° c.
Visibility: 10 Statute Miles.
Clouds: Clear (automated report).

PAPH 250656Z AUTO 04017KT 10SM CLR M13/M18 A2962 RMK AO2 SLP032 T11331178 FZRANO


Wind From 040°
Speed 17 kn.

 
 
jpsmedia worldairports.se 2020   terms of use